Terminal Aerodrome Forecast
Issued by NWS

Home | Current Version | Previous Version | Graphics & Text | Print | Product List | Glossary On
Versions: 1 2 3 4 5 6 7 8 9 10 11 12 13 14 15 16
000
FTUS41 KCLE 202120 AAA
TAFFDY
TAF AMD
KFDY 202120Z 2021/2118 23015G25KT P6SM VCTS BKN045CB
      TEMPO 2021/2024 25025G50KT 1SM TSRA OVC018CB
     FM210100 27015G22KT P6SM BKN030
     FM210500 26012KT P6SM BKN028=

USA.gov is the U.S. government's official web portal to all federal, state and local government web resources and services.